sensor_id;sensor_type;location;lat;lon;timestamp;P1;durP1;ratioP1;P2;durP2;ratioP2
72949;SDS011;61101;45.710;9.590;2022-07-06T00:01:33;5.32;;;1.33;;
72949;SDS011;61101;45.710;9.590;2022-07-06T00:03:58;6.43;;;1.40;;
72949;SDS011;61101;45.710;9.590;2022-07-06T00:06:25;4.07;;;1.20;;
72949;SDS011;61101;45.710;9.590;2022-07-06T00:08:50;4.40;;;1.30;;
72949;SDS011;61101;45.710;9.590;2022-07-06T00:11:16;6.85;;;1.50;;
72949;SDS011;61101;45.710;9.590;2022-07-06T00:13:41;3.58;;;1.25;;
72949;SDS011;61101;45.710;9.590;2022-07-06T00:16:06;4.22;;;1.40;;
72949;SDS011;61101;45.710;9.590;2022-07-06T00:18:32;5.75;;;1.55;;
72949;SDS011;61101;45.710;9.590;2022-07-06T00:20:57;4.25;;;1.45;;
72949;SDS011;61101;45.710;9.590;2022-07-06T00:23:23;6.15;;;1.58;;
72949;SDS011;61101;45.710;9.590;2022-07-06T00:25:48;6.03;;;1.45;;
72949;SDS011;61101;45.710;9.590;2022-07-06T00:28:14;5.95;;;1.50;;
72949;SDS011;61101;45.710;9.590;2022-07-06T00:30:39;4.95;;;1.55;;
72949;SDS011;61101;45.710;9.590;2022-07-06T00:33:05;4.60;;;1.58;;
72949;SDS011;61101;45.710;9.590;2022-07-06T00:35:30;4.72;;;1.52;;
72949;SDS011;61101;45.710;9.590;2022-07-06T00:37:55;6.75;;;1.65;;
72949;SDS011;61101;45.710;9.590;2022-07-06T00:40:21;4.88;;;1.55;;
72949;SDS011;61101;45.710;9.590;2022-07-06T00:42:47;5.88;;;1.58;;
72949;SDS011;61101;45.710;9.590;2022-07-06T00:45:13;6.20;;;1.60;;
72949;SDS011;61101;45.710;9.590;2022-07-06T00:47:39;5.97;;;1.75;;
72949;SDS011;61101;45.710;9.590;2022-07-06T00:50:05;6.82;;;1.92;;
72949;SDS011;61101;45.710;9.590;2022-07-06T00:53:13;6.82;;;1.58;;
72949;SDS011;61101;45.710;9.590;2022-07-06T00:55:33;5.72;;;1.58;;
72949;SDS011;61101;45.710;9.590;2022-07-06T00:58:01;5.18;;;1.50;;
72949;SDS011;61101;45.710;9.590;2022-07-06T01:00:33;4.78;;;1.50;;
72949;SDS011;61101;45.710;9.590;2022-07-06T01:02:59;5.13;;;1.88;;
72949;SDS011;61101;45.710;9.590;2022-07-06T01:05:24;6.38;;;1.52;;
72949;SDS011;61101;45.710;9.590;2022-07-06T01:07:50;4.75;;;1.40;;
72949;SDS011;61101;45.710;9.590;2022-07-06T01:10:17;8.48;;;1.63;;
72949;SDS011;61101;45.710;9.590;2022-07-06T01:12:43;5.30;;;1.23;;
72949;SDS011;61101;45.710;9.590;2022-07-06T01:15:19;4.55;;;1.60;;
72949;SDS011;61101;45.710;9.590;2022-07-06T01:17:45;6.35;;;1.45;;
72949;SDS011;61101;45.710;9.590;2022-07-06T01:22:36;5.32;;;1.13;;
72949;SDS011;61101;45.710;9.590;2022-07-06T01:25:01;4.53;;;1.38;;
72949;SDS011;61101;45.710;9.590;2022-07-06T01:27:26;4.20;;;1.42;;
72949;SDS011;61101;45.710;9.590;2022-07-06T01:29:52;4.15;;;1.40;;
72949;SDS011;61101;45.710;9.590;2022-07-06T01:32:17;4.18;;;1.25;;
72949;SDS011;61101;45.710;9.590;2022-07-06T01:34:43;4.20;;;1.30;;
72949;SDS011;61101;45.710;9.590;2022-07-06T01:37:08;4.45;;;1.38;;
72949;SDS011;61101;45.710;9.590;2022-07-06T01:39:33;3.97;;;1.20;;
72949;SDS011;61101;45.710;9.590;2022-07-06T01:41:58;5.50;;;1.60;;
72949;SDS011;61101;45.710;9.590;2022-07-06T01:44:23;5.40;;;1.30;;
72949;SDS011;61101;45.710;9.590;2022-07-06T01:46:49;4.40;;;1.50;;
72949;SDS011;61101;45.710;9.590;2022-07-06T01:49:14;4.47;;;1.30;;
72949;SDS011;61101;45.710;9.590;2022-07-06T01:51:39;4.10;;;1.60;;
72949;SDS011;61101;45.710;9.590;2022-07-06T01:54:05;5.40;;;1.53;;
72949;SDS011;61101;45.710;9.590;2022-07-06T01:56:30;5.15;;;1.48;;
72949;SDS011;61101;45.710;9.590;2022-07-06T01:58:55;5.80;;;1.30;;
72949;SDS011;61101;45.710;9.590;2022-07-06T02:01:22;4.75;;;1.50;;
72949;SDS011;61101;45.710;9.590;2022-07-06T02:03:47;4.10;;;1.30;;
72949;SDS011;61101;45.710;9.590;2022-07-06T02:06:12;6.17;;;1.50;;
72949;SDS011;61101;45.710;9.590;2022-07-06T02:08:38;4.75;;;1.38;;
72949;SDS011;61101;45.710;9.590;2022-07-06T02:11:04;5.75;;;1.40;;
72949;SDS011;61101;45.710;9.590;2022-07-06T02:13:30;5.05;;;1.50;;
72949;SDS011;61101;45.710;9.590;2022-07-06T02:15:55;4.40;;;1.42;;
72949;SDS011;61101;45.710;9.590;2022-07-06T02:18:20;5.25;;;1.70;;
72949;SDS011;61101;45.710;9.590;2022-07-06T02:20:46;5.22;;;1.48;;
72949;SDS011;61101;45.710;9.590;2022-07-06T02:23:11;6.07;;;1.60;;
72949;SDS011;61101;45.710;9.590;2022-07-06T02:25:36;5.32;;;1.45;;
72949;SDS011;61101;45.710;9.590;2022-07-06T02:28:02;4.97;;;1.70;;
72949;SDS011;61101;45.710;9.590;2022-07-06T02:30:27;5.32;;;1.40;;
72949;SDS011;61101;45.710;9.590;2022-07-06T02:32:52;5.00;;;1.40;;
72949;SDS011;61101;45.710;9.590;2022-07-06T02:35:18;5.78;;;1.50;;
72949;SDS011;61101;45.710;9.590;2022-07-06T02:37:43;5.35;;;1.48;;
72949;SDS011;61101;45.710;9.590;2022-07-06T02:40:09;4.47;;;1.55;;
72949;SDS011;61101;45.710;9.590;2022-07-06T02:42:34;4.53;;;1.50;;
72949;SDS011;61101;45.710;9.590;2022-07-06T02:44:59;6.38;;;1.73;;
72949;SDS011;61101;45.710;9.590;2022-07-06T02:47:25;4.47;;;1.48;;
72949;SDS011;61101;45.710;9.590;2022-07-06T02:49:51;5.15;;;1.63;;
72949;SDS011;61101;45.710;9.590;2022-07-06T02:52:17;5.47;;;1.50;;
72949;SDS011;61101;45.710;9.590;2022-07-06T02:54:42;6.53;;;1.60;;
72949;SDS011;61101;45.710;9.590;2022-07-06T02:57:07;5.73;;;1.50;;
72949;SDS011;61101;45.710;9.590;2022-07-06T02:59:33;6.63;;;1.77;;
72949;SDS011;61101;45.710;9.590;2022-07-06T03:01:58;4.38;;;1.30;;
72949;SDS011;61101;45.710;9.590;2022-07-06T03:04:23;8.30;;;1.60;;
72949;SDS011;61101;45.710;9.590;2022-07-06T03:06:48;5.43;;;1.60;;
72949;SDS011;61101;45.710;9.590;2022-07-06T03:09:15;6.82;;;1.70;;
72949;SDS011;61101;45.710;9.590;2022-07-06T03:11:47;4.90;;;1.30;;
72949;SDS011;61101;45.710;9.590;2022-07-06T03:14:14;3.90;;;1.17;;
72949;SDS011;61101;45.710;9.590;2022-07-06T03:16:43;4.35;;;1.30;;
72949;SDS011;61101;45.710;9.590;2022-07-06T03:19:16;7.03;;;1.20;;
72949;SDS011;61101;45.710;9.590;2022-07-06T03:21:52;4.43;;;1.33;;
72949;SDS011;61101;45.710;9.590;2022-07-06T03:24:18;6.88;;;1.50;;
72949;SDS011;61101;45.710;9.590;2022-07-06T03:26:44;6.32;;;1.52;;
72949;SDS011;61101;45.710;9.590;2022-07-06T03:29:48;4.63;;;1.70;;
72949;SDS011;61101;45.710;9.590;2022-07-06T03:32:14;6.20;;;1.40;;
72949;SDS011;61101;45.710;9.590;2022-07-06T03:37:43;5.32;;;1.38;;
72949;SDS011;61101;45.710;9.590;2022-07-06T03:40:13;4.60;;;1.20;;
72949;SDS011;61101;45.710;9.590;2022-07-06T03:42:51;7.57;;;1.50;;
72949;SDS011;61101;45.710;9.590;2022-07-06T03:45:19;4.93;;;1.20;;
72949;SDS011;61101;45.710;9.590;2022-07-06T03:48:02;4.18;;;1.23;;
72949;SDS011;61101;45.710;9.590;2022-07-06T03:50:28;4.43;;;1.48;;
72949;SDS011;61101;45.710;9.590;2022-07-06T03:53:08;7.32;;;1.58;;
72949;SDS011;61101;45.710;9.590;2022-07-06T03:55:40;6.78;;;1.40;;
72949;SDS011;61101;45.710;9.590;2022-07-06T04:00:32;4.75;;;1.50;;
72949;SDS011;61101;45.710;9.590;2022-07-06T04:02:59;7.65;;;1.60;;
72949;SDS011;61101;45.710;9.590;2022-07-06T04:05:24;7.45;;;1.70;;
72949;SDS011;61101;45.710;9.590;2022-07-06T04:07:52;7.40;;;1.33;;
72949;SDS011;61101;45.710;9.590;2022-07-06T04:10:17;4.50;;;1.42;;
72949;SDS011;61101;45.710;9.590;2022-07-06T04:12:43;9.90;;;1.60;;
72949;SDS011;61101;45.710;9.590;2022-07-06T04:15:09;8.18;;;1.60;;
72949;SDS011;61101;45.710;9.590;2022-07-06T04:17:35;5.03;;;1.40;;
72949;SDS011;61101;45.710;9.590;2022-07-06T04:20:19;4.65;;;1.50;;
72949;SDS011;61101;45.710;9.590;2022-07-06T04:22:45;5.22;;;1.80;;
72949;SDS011;61101;45.710;9.590;2022-07-06T04:25:10;6.70;;;1.67;;
72949;SDS011;61101;45.710;9.590;2022-07-06T04:27:35;7.87;;;2.17;;
72949;SDS011;61101;45.710;9.590;2022-07-06T04:30:01;7.72;;;2.00;;
72949;SDS011;61101;45.710;9.590;2022-07-06T04:32:26;8.25;;;1.90;;
72949;SDS011;61101;45.710;9.590;2022-07-06T04:34:52;12.38;;;1.60;;
72949;SDS011;61101;45.710;9.590;2022-07-06T04:37:17;17.85;;;2.65;;
72949;SDS011;61101;45.710;9.590;2022-07-06T04:39:43;18.60;;;3.13;;
72949;SDS011;61101;45.710;9.590;2022-07-06T04:42:08;14.87;;;3.27;;
72949;SDS011;61101;45.710;9.590;2022-07-06T04:44:33;12.68;;;4.90;;
72949;SDS011;61101;45.710;9.590;2022-07-06T04:46:59;19.17;;;4.90;;
72949;SDS011;61101;45.710;9.590;2022-07-06T04:49:24;14.00;;;3.75;;
72949;SDS011;61101;45.710;9.590;2022-07-06T04:51:49;19.65;;;7.65;;
72949;SDS011;61101;45.710;9.590;2022-07-06T04:54:14;22.03;;;5.47;;
72949;SDS011;61101;45.710;9.590;2022-07-06T04:56:40;11.63;;;4.60;;
72949;SDS011;61101;45.710;9.590;2022-07-06T04:59:05;9.00;;;2.10;;
72949;SDS011;61101;45.710;9.590;2022-07-06T05:01:30;7.03;;;2.00;;
72949;SDS011;61101;45.710;9.590;2022-07-06T05:03:56;6.75;;;1.60;;
72949;SDS011;61101;45.710;9.590;2022-07-06T05:06:21;7.65;;;1.75;;
72949;SDS011;61101;45.710;9.590;2022-07-06T05:08:46;6.37;;;1.80;;
72949;SDS011;61101;45.710;9.590;2022-07-06T05:11:11;9.23;;;1.73;;
72949;SDS011;61101;45.710;9.590;2022-07-06T05:13:37;6.43;;;1.50;;
72949;SDS011;61101;45.710;9.590;2022-07-06T05:16:02;5.07;;;1.40;;
72949;SDS011;61101;45.710;9.590;2022-07-06T05:18:27;4.82;;;1.38;;
72949;SDS011;61101;45.710;9.590;2022-07-06T05:20:53;13.88;;;1.70;;
72949;SDS011;61101;45.710;9.590;2022-07-06T05:23:18;15.73;;;2.20;;
72949;SDS011;61101;45.710;9.590;2022-07-06T05:25:43;5.13;;;1.43;;
72949;SDS011;61101;45.710;9.590;2022-07-06T05:28:08;10.60;;;1.90;;
72949;SDS011;61101;45.710;9.590;2022-07-06T05:30:34;6.63;;;1.58;;
72949;SDS011;61101;45.710;9.590;2022-07-06T05:32:59;15.17;;;1.83;;
72949;SDS011;61101;45.710;9.590;2022-07-06T05:35:24;7.07;;;1.50;;
72949;SDS011;61101;45.710;9.590;2022-07-06T05:37:50;7.32;;;1.80;;
72949;SDS011;61101;45.710;9.590;2022-07-06T05:40:15;7.77;;;1.47;;
72949;SDS011;61101;45.710;9.590;2022-07-06T05:42:40;5.95;;;1.50;;
72949;SDS011;61101;45.710;9.590;2022-07-06T05:45:05;10.17;;;1.77;;
72949;SDS011;61101;45.710;9.590;2022-07-06T05:47:31;10.18;;;1.60;;
72949;SDS011;61101;45.710;9.590;2022-07-06T05:50:15;5.28;;;1.45;;
72949;SDS011;61101;45.710;9.590;2022-07-06T05:52:41;10.00;;;1.90;;
72949;SDS011;61101;45.710;9.590;2022-07-06T05:55:07;30.50;;;2.67;;
72949;SDS011;61101;45.710;9.590;2022-07-06T05:57:32;11.05;;;1.67;;
72949;SDS011;61101;45.710;9.590;2022-07-06T05:59:58;6.38;;;1.70;;
72949;SDS011;61101;45.710;9.590;2022-07-06T06:02:23;7.47;;;1.50;;
72949;SDS011;61101;45.710;9.590;2022-07-06T06:04:48;6.60;;;1.83;;
72949;SDS011;61101;45.710;9.590;2022-07-06T06:07:13;10.63;;;1.93;;
72949;SDS011;61101;45.710;9.590;2022-07-06T06:09:39;10.20;;;2.37;;
72949;SDS011;61101;45.710;9.590;2022-07-06T06:12:04;11.03;;;2.63;;
72949;SDS011;61101;45.710;9.590;2022-07-06T06:14:29;20.38;;;2.25;;
72949;SDS011;61101;45.710;9.590;2022-07-06T06:16:55;7.90;;;1.92;;
72949;SDS011;61101;45.710;9.590;2022-07-06T06:19:20;7.38;;;1.40;;
72949;SDS011;61101;45.710;9.590;2022-07-06T06:21:45;11.10;;;2.17;;
72949;SDS011;61101;45.710;9.590;2022-07-06T06:24:11;4.85;;;1.83;;
72949;SDS011;61101;45.710;9.590;2022-07-06T06:26:36;6.60;;;1.33;;
72949;SDS011;61101;45.710;9.590;2022-07-06T06:29:01;14.63;;;1.92;;
72949;SDS011;61101;45.710;9.590;2022-07-06T06:31:26;28.13;;;2.30;;
72949;SDS011;61101;45.710;9.590;2022-07-06T06:33:52;9.07;;;1.42;;
72949;SDS011;61101;45.710;9.590;2022-07-06T06:36:18;5.13;;;1.60;;
72949;SDS011;61101;45.710;9.590;2022-07-06T06:38:43;5.07;;;1.43;;
72949;SDS011;61101;45.710;9.590;2022-07-06T06:41:08;6.37;;;1.50;;
72949;SDS011;61101;45.710;9.590;2022-07-06T06:43:33;5.30;;;1.37;;
72949;SDS011;61101;45.710;9.590;2022-07-06T06:45:59;5.85;;;1.63;;
72949;SDS011;61101;45.710;9.590;2022-07-06T06:48:24;6.63;;;1.75;;
72949;SDS011;61101;45.710;9.590;2022-07-06T06:50:49;5.22;;;1.33;;
72949;SDS011;61101;45.710;9.590;2022-07-06T06:53:15;5.32;;;1.30;;
72949;SDS011;61101;45.710;9.590;2022-07-06T06:55:40;5.87;;;1.87;;
72949;SDS011;61101;45.710;9.590;2022-07-06T06:58:05;6.70;;;2.03;;
72949;SDS011;61101;45.710;9.590;2022-07-06T07:00:31;6.28;;;1.80;;
72949;SDS011;61101;45.710;9.590;2022-07-06T07:02:56;7.73;;;1.50;;
72949;SDS011;61101;45.710;9.590;2022-07-06T07:05:21;9.13;;;1.83;;
72949;SDS011;61101;45.710;9.590;2022-07-06T07:07:47;8.48;;;1.83;;
72949;SDS011;61101;45.710;9.590;2022-07-06T07:10:12;5.28;;;1.48;;
72949;SDS011;61101;45.710;9.590;2022-07-06T07:12:46;5.37;;;1.90;;
72949;SDS011;61101;45.710;9.590;2022-07-06T07:15:12;7.40;;;1.92;;
72949;SDS011;61101;45.710;9.590;2022-07-06T07:17:39;10.38;;;1.60;;
72949;SDS011;61101;45.710;9.590;2022-07-06T07:20:04;5.95;;;1.83;;
72949;SDS011;61101;45.710;9.590;2022-07-06T07:22:29;5.85;;;1.63;;
72949;SDS011;61101;45.710;9.590;2022-07-06T07:24:55;5.90;;;1.33;;
72949;SDS011;61101;45.710;9.590;2022-07-06T07:27:20;6.25;;;1.83;;
72949;SDS011;61101;45.710;9.590;2022-07-06T07:29:45;7.73;;;1.70;;
72949;SDS011;61101;45.710;9.590;2022-07-06T07:32:11;5.57;;;1.60;;
72949;SDS011;61101;45.710;9.590;2022-07-06T07:34:36;5.85;;;1.88;;
72949;SDS011;61101;45.710;9.590;2022-07-06T07:37:02;5.47;;;1.63;;
72949;SDS011;61101;45.710;9.590;2022-07-06T07:39:27;8.60;;;1.70;;
72949;SDS011;61101;45.710;9.590;2022-07-06T07:41:52;11.45;;;2.08;;
72949;SDS011;61101;45.710;9.590;2022-07-06T07:44:18;9.43;;;1.67;;
72949;SDS011;61101;45.710;9.590;2022-07-06T07:46:43;9.35;;;1.90;;
72949;SDS011;61101;45.710;9.590;2022-07-06T07:49:08;9.57;;;2.00;;
72949;SDS011;61101;45.710;9.590;2022-07-06T07:51:34;9.30;;;2.00;;
72949;SDS011;61101;45.710;9.590;2022-07-06T07:53:59;6.05;;;1.80;;
72949;SDS011;61101;45.710;9.590;2022-07-06T07:56:24;9.82;;;2.00;;
72949;SDS011;61101;45.710;9.590;2022-07-06T07:58:50;10.23;;;1.67;;
72949;SDS011;61101;45.710;9.590;2022-07-06T08:01:15;6.82;;;1.48;;
72949;SDS011;61101;45.710;9.590;2022-07-06T08:03:40;5.82;;;2.00;;
72949;SDS011;61101;45.710;9.590;2022-07-06T08:06:06;5.33;;;1.70;;
72949;SDS011;61101;45.710;9.590;2022-07-06T08:08:31;11.38;;;1.98;;
72949;SDS011;61101;45.710;9.590;2022-07-06T08:10:56;8.30;;;1.90;;
72949;SDS011;61101;45.710;9.590;2022-07-06T08:13:21;8.70;;;1.63;;
72949;SDS011;61101;45.710;9.590;2022-07-06T08:15:47;6.15;;;1.58;;
72949;SDS011;61101;45.710;9.590;2022-07-06T08:18:12;5.10;;;1.50;;
72949;SDS011;61101;45.710;9.590;2022-07-06T08:20:37;7.03;;;1.58;;
72949;SDS011;61101;45.710;9.590;2022-07-06T08:23:03;8.07;;;1.60;;
72949;SDS011;61101;45.710;9.590;2022-07-06T08:25:29;5.80;;;1.70;;
72949;SDS011;61101;45.710;9.590;2022-07-06T08:27:54;5.88;;;1.65;;
72949;SDS011;61101;45.710;9.590;2022-07-06T08:30:19;5.90;;;1.92;;
72949;SDS011;61101;45.710;9.590;2022-07-06T08:32:45;6.13;;;1.70;;
72949;SDS011;61101;45.710;9.590;2022-07-06T08:35:10;9.82;;;1.70;;
72949;SDS011;61101;45.710;9.590;2022-07-06T08:37:35;7.60;;;1.92;;
72949;SDS011;61101;45.710;9.590;2022-07-06T08:40:01;6.50;;;1.65;;
72949;SDS011;61101;45.710;9.590;2022-07-06T08:42:29;5.50;;;1.70;;
72949;SDS011;61101;45.710;9.590;2022-07-06T08:44:55;6.00;;;1.70;;
72949;SDS011;61101;45.710;9.590;2022-07-06T08:47:21;6.95;;;1.70;;
72949;SDS011;61101;45.710;9.590;2022-07-06T08:49:46;12.95;;;1.98;;
72949;SDS011;61101;45.710;9.590;2022-07-06T08:52:12;5.72;;;1.40;;
72949;SDS011;61101;45.710;9.590;2022-07-06T08:54:37;15.00;;;1.85;;
72949;SDS011;61101;45.710;9.590;2022-07-06T08:57:03;10.20;;;1.80;;
72949;SDS011;61101;45.710;9.590;2022-07-06T08:59:28;5.85;;;2.22;;
72949;SDS011;61101;45.710;9.590;2022-07-06T09:01:54;7.50;;;1.65;;
72949;SDS011;61101;45.710;9.590;2022-07-06T09:04:20;16.92;;;2.20;;
72949;SDS011;61101;45.710;9.590;2022-07-06T09:06:47;5.13;;;1.67;;
72949;SDS011;61101;45.710;9.590;2022-07-06T09:09:14;7.30;;;1.60;;
72949;SDS011;61101;45.710;9.590;2022-07-06T09:11:41;4.28;;;1.52;;
72949;SDS011;61101;45.710;9.590;2022-07-06T09:14:07;6.22;;;1.42;;
72949;SDS011;61101;45.710;9.590;2022-07-06T09:16:32;6.55;;;1.70;;
72949;SDS011;61101;45.710;9.590;2022-07-06T09:18:57;5.70;;;1.70;;
72949;SDS011;61101;45.710;9.590;2022-07-06T09:21:24;6.10;;;1.83;;
72949;SDS011;61101;45.710;9.590;2022-07-06T09:23:58;5.50;;;1.83;;
72949;SDS011;61101;45.710;9.590;2022-07-06T09:26:24;5.75;;;1.52;;
72949;SDS011;61101;45.710;9.590;2022-07-06T09:28:49;8.55;;;2.30;;
72949;SDS011;61101;45.710;9.590;2022-07-06T09:31:15;5.50;;;1.40;;
72949;SDS011;61101;45.710;9.590;2022-07-06T09:33:52;7.03;;;1.67;;
72949;SDS011;61101;45.710;9.590;2022-07-06T09:36:18;6.15;;;1.67;;
72949;SDS011;61101;45.710;9.590;2022-07-06T09:39:14;7.65;;;1.77;;
72949;SDS011;61101;45.710;9.590;2022-07-06T09:41:40;12.02;;;2.08;;
72949;SDS011;61101;45.710;9.590;2022-07-06T09:44:08;5.82;;;1.85;;
72949;SDS011;61101;45.710;9.590;2022-07-06T09:46:37;10.18;;;2.00;;
72949;SDS011;61101;45.710;9.590;2022-07-06T09:49:03;5.25;;;1.60;;
72949;SDS011;61101;45.710;9.590;2022-07-06T09:51:31;5.32;;;1.63;;
72949;SDS011;61101;45.710;9.590;2022-07-06T09:53:57;6.60;;;1.70;;
72949;SDS011;61101;45.710;9.590;2022-07-06T09:56:35;5.65;;;1.52;;
72949;SDS011;61101;45.710;9.590;2022-07-06T09:59:04;9.52;;;1.73;;
72949;SDS011;61101;45.710;9.590;2022-07-06T10:03:56;30.40;;;3.10;;
72949;SDS011;61101;45.710;9.590;2022-07-06T10:06:21;27.67;;;3.10;;
72949;SDS011;61101;45.710;9.590;2022-07-06T10:08:48;12.27;;;1.85;;
72949;SDS011;61101;45.710;9.590;2022-07-06T10:11:14;8.52;;;2.10;;
72949;SDS011;61101;45.710;9.590;2022-07-06T10:13:40;5.38;;;1.42;;
72949;SDS011;61101;45.710;9.590;2022-07-06T10:16:07;6.20;;;1.80;;
72949;SDS011;61101;45.710;9.590;2022-07-06T10:18:32;12.55;;;1.88;;
72949;SDS011;61101;45.710;9.590;2022-07-06T10:20:58;6.88;;;1.60;;
72949;SDS011;61101;45.710;9.590;2022-07-06T10:23:23;6.72;;;1.70;;
72949;SDS011;61101;45.710;9.590;2022-07-06T10:25:49;5.85;;;1.70;;
72949;SDS011;61101;45.710;9.590;2022-07-06T10:28:15;11.55;;;1.90;;
72949;SDS011;61101;45.710;9.590;2022-07-06T10:30:42;8.50;;;2.28;;
72949;SDS011;61101;45.710;9.590;2022-07-06T10:33:08;8.73;;;1.83;;
72949;SDS011;61101;45.710;9.590;2022-07-06T10:35:34;6.68;;;1.60;;
72949;SDS011;61101;45.710;9.590;2022-07-06T10:38:06;5.53;;;1.52;;
72949;SDS011;61101;45.710;9.590;2022-07-06T10:40:35;6.75;;;2.03;;
72949;SDS011;61101;45.710;9.590;2022-07-06T10:43:19;5.72;;;1.48;;
72949;SDS011;61101;45.710;9.590;2022-07-06T10:50:37;6.63;;;1.60;;
72949;SDS011;61101;45.710;9.590;2022-07-06T10:53:03;5.50;;;1.60;;
72949;SDS011;61101;45.710;9.590;2022-07-06T10:55:36;6.03;;;1.83;;
72949;SDS011;61101;45.710;9.590;2022-07-06T10:58:01;4.82;;;1.58;;
72949;SDS011;61101;45.710;9.590;2022-07-06T11:00:42;5.78;;;1.88;;
72949;SDS011;61101;45.710;9.590;2022-07-06T11:03:31;6.03;;;1.73;;
72949;SDS011;61101;45.710;9.590;2022-07-06T11:06:01;13.05;;;1.92;;
72949;SDS011;61101;45.710;9.590;2022-07-06T11:08:47;5.47;;;1.65;;
72949;SDS011;61101;45.710;9.590;2022-07-06T11:11:23;20.27;;;2.67;;
72949;SDS011;61101;45.710;9.590;2022-07-06T11:13:49;7.43;;;2.13;;
72949;SDS011;61101;45.710;9.590;2022-07-06T11:16:16;8.00;;;2.20;;
72949;SDS011;61101;45.710;9.590;2022-07-06T11:18:42;6.78;;;1.90;;
72949;SDS011;61101;45.710;9.590;2022-07-06T11:21:17;8.10;;;2.03;;
72949;SDS011;61101;45.710;9.590;2022-07-06T11:23:44;16.38;;;2.70;;
72949;SDS011;61101;45.710;9.590;2022-07-06T11:26:10;7.75;;;2.00;;
72949;SDS011;61101;45.710;9.590;2022-07-06T11:28:37;8.15;;;2.40;;
72949;SDS011;61101;45.710;9.590;2022-07-06T11:31:02;13.05;;;2.53;;
72949;SDS011;61101;45.710;9.590;2022-07-06T11:33:31;8.95;;;2.15;;
72949;SDS011;61101;45.710;9.590;2022-07-06T11:36:12;7.50;;;2.38;;
72949;SDS011;61101;45.710;9.590;2022-07-06T11:38:38;5.38;;;1.95;;
72949;SDS011;61101;45.710;9.590;2022-07-06T11:41:03;7.30;;;2.03;;
72949;SDS011;61101;45.710;9.590;2022-07-06T11:43:28;7.30;;;1.80;;
72949;SDS011;61101;45.710;9.590;2022-07-06T11:45:54;6.27;;;2.07;;
72949;SDS011;61101;45.710;9.590;2022-07-06T11:48:19;7.15;;;2.28;;
72949;SDS011;61101;45.710;9.590;2022-07-06T11:51:04;6.38;;;2.30;;
72949;SDS011;61101;45.710;9.590;2022-07-06T11:53:30;6.57;;;2.28;;
72949;SDS011;61101;45.710;9.590;2022-07-06T11:55:55;10.85;;;2.30;;
72949;SDS011;61101;45.710;9.590;2022-07-06T11:58:26;7.35;;;2.03;;
72949;SDS011;61101;45.710;9.590;2022-07-06T12:01:10;8.93;;;2.08;;
72949;SDS011;61101;45.710;9.590;2022-07-06T12:03:36;6.63;;;1.98;;
72949;SDS011;61101;45.710;9.590;2022-07-06T12:06:05;5.97;;;2.03;;
72949;SDS011;61101;45.710;9.590;2022-07-06T12:08:31;11.18;;;2.08;;
72949;SDS011;61101;45.710;9.590;2022-07-06T12:10:58;19.65;;;2.60;;
72949;SDS011;61101;45.710;9.590;2022-07-06T12:13:24;9.30;;;2.00;;
72949;SDS011;61101;45.710;9.590;2022-07-06T12:15:49;7.40;;;2.00;;
72949;SDS011;61101;45.710;9.590;2022-07-06T12:18:15;6.00;;;2.13;;
72949;SDS011;61101;45.710;9.590;2022-07-06T12:23:08;6.32;;;1.83;;
72949;SDS011;61101;45.710;9.590;2022-07-06T12:25:34;7.15;;;1.80;;
72949;SDS011;61101;45.710;9.590;2022-07-06T12:28:00;7.75;;;2.30;;
72949;SDS011;61101;45.710;9.590;2022-07-06T12:30:25;8.60;;;1.70;;
72949;SDS011;61101;45.710;9.590;2022-07-06T12:35:34;6.95;;;1.92;;
72949;SDS011;61101;45.710;9.590;2022-07-06T12:38:00;6.72;;;1.80;;
72949;SDS011;61101;45.710;9.590;2022-07-06T12:40:27;5.43;;;1.70;;
72949;SDS011;61101;45.710;9.590;2022-07-06T12:42:53;5.60;;;1.88;;
72949;SDS011;61101;45.710;9.590;2022-07-06T12:45:18;4.35;;;1.80;;
72949;SDS011;61101;45.710;9.590;2022-07-06T12:50:34;6.50;;;1.83;;
72949;SDS011;61101;45.710;9.590;2022-07-06T12:53:00;6.50;;;1.67;;
72949;SDS011;61101;45.710;9.590;2022-07-06T12:55:27;6.07;;;2.03;;
72949;SDS011;61101;45.710;9.590;2022-07-06T12:57:53;6.13;;;1.73;;
72949;SDS011;61101;45.710;9.590;2022-07-06T13:00:18;6.93;;;1.77;;
72949;SDS011;61101;45.710;9.590;2022-07-06T13:02:45;4.35;;;1.50;;
72949;SDS011;61101;45.710;9.590;2022-07-06T13:05:12;5.13;;;1.63;;
72949;SDS011;61101;45.710;9.590;2022-07-06T13:07:38;4.60;;;1.60;;
72949;SDS011;61101;45.710;9.590;2022-07-06T13:10:07;6.82;;;1.80;;
72949;SDS011;61101;45.710;9.590;2022-07-06T13:12:33;4.70;;;1.60;;
72949;SDS011;61101;45.710;9.590;2022-07-06T13:14:58;8.88;;;1.70;;
72949;SDS011;61101;45.710;9.590;2022-07-06T13:17:24;6.57;;;1.70;;
72949;SDS011;61101;45.710;9.590;2022-07-06T13:19:49;6.13;;;1.70;;
72949;SDS011;61101;45.710;9.590;2022-07-06T13:22:14;5.32;;;1.58;;
72949;SDS011;61101;45.710;9.590;2022-07-06T13:24:40;7.57;;;1.98;;
72949;SDS011;61101;45.710;9.590;2022-07-06T13:27:05;7.68;;;2.13;;
72949;SDS011;61101;45.710;9.590;2022-07-06T13:29:30;8.25;;;1.60;;
72949;SDS011;61101;45.710;9.590;2022-07-06T13:31:56;8.37;;;1.77;;
72949;SDS011;61101;45.710;9.590;2022-07-06T13:34:21;5.90;;;1.90;;
72949;SDS011;61101;45.710;9.590;2022-07-06T13:36:46;5.10;;;1.50;;
72949;SDS011;61101;45.710;9.590;2022-07-06T13:39:12;8.93;;;2.03;;
72949;SDS011;61101;45.710;9.590;2022-07-06T13:41:38;5.03;;;1.80;;
72949;SDS011;61101;45.710;9.590;2022-07-06T13:44:03;7.17;;;1.50;;
72949;SDS011;61101;45.710;9.590;2022-07-06T13:46:29;10.68;;;2.10;;
72949;SDS011;61101;45.710;9.590;2022-07-06T13:48:54;5.57;;;1.50;;
72949;SDS011;61101;45.710;9.590;2022-07-06T13:51:21;4.97;;;1.60;;
72949;SDS011;61101;45.710;9.590;2022-07-06T13:53:46;5.50;;;1.37;;
72949;SDS011;61101;45.710;9.590;2022-07-06T13:56:11;5.87;;;2.00;;
72949;SDS011;61101;45.710;9.590;2022-07-06T13:58:37;5.80;;;1.63;;
72949;SDS011;61101;45.710;9.590;2022-07-06T14:01:03;8.00;;;1.97;;
72949;SDS011;61101;45.710;9.590;2022-07-06T14:03:28;7.07;;;1.67;;
72949;SDS011;61101;45.710;9.590;2022-07-06T14:06:04;4.95;;;1.48;;
72949;SDS011;61101;45.710;9.590;2022-07-06T14:08:29;5.03;;;1.58;;
72949;SDS011;61101;45.710;9.590;2022-07-06T14:10:55;4.35;;;1.45;;
72949;SDS011;61101;45.710;9.590;2022-07-06T14:13:21;8.52;;;1.60;;
72949;SDS011;61101;45.710;9.590;2022-07-06T14:15:46;6.88;;;1.60;;
72949;SDS011;61101;45.710;9.590;2022-07-06T14:18:12;6.65;;;1.80;;
72949;SDS011;61101;45.710;9.590;2022-07-06T14:20:37;6.90;;;1.93;;
72949;SDS011;61101;45.710;9.590;2022-07-06T14:23:02;5.87;;;1.40;;
72949;SDS011;61101;45.710;9.590;2022-07-06T14:25:28;5.43;;;1.23;;
72949;SDS011;61101;45.710;9.590;2022-07-06T14:27:54;8.82;;;1.83;;
72949;SDS011;61101;45.710;9.590;2022-07-06T14:30:19;10.88;;;1.95;;
72949;SDS011;61101;45.710;9.590;2022-07-06T14:32:45;6.87;;;1.80;;
72949;SDS011;61101;45.710;9.590;2022-07-06T14:35:13;9.13;;;1.70;;
72949;SDS011;61101;45.710;9.590;2022-07-06T14:37:42;4.32;;;1.60;;
72949;SDS011;61101;45.710;9.590;2022-07-06T14:40:07;5.55;;;1.73;;
72949;SDS011;61101;45.710;9.590;2022-07-06T14:42:32;6.03;;;1.58;;
72949;SDS011;61101;45.710;9.590;2022-07-06T14:44:58;6.80;;;1.40;;
72949;SDS011;61101;45.710;9.590;2022-07-06T14:47:23;8.27;;;1.97;;
72949;SDS011;61101;45.710;9.590;2022-07-06T14:49:48;4.20;;;1.50;;
72949;SDS011;61101;45.710;9.590;2022-07-06T14:52:15;6.55;;;1.52;;
72949;SDS011;61101;45.710;9.590;2022-07-06T14:54:41;8.98;;;1.88;;
72949;SDS011;61101;45.710;9.590;2022-07-06T14:57:06;8.63;;;2.03;;
72949;SDS011;61101;45.710;9.590;2022-07-06T14:59:33;5.22;;;1.73;;
72949;SDS011;61101;45.710;9.590;2022-07-06T15:01:58;4.85;;;1.50;;
72949;SDS011;61101;45.710;9.590;2022-07-06T15:04:24;7.35;;;1.73;;
72949;SDS011;61101;45.710;9.590;2022-07-06T15:06:49;4.55;;;1.45;;